Time;durP1;ratioP1;P1;durP2;ratioP2;P2;SDS_P1;SDS_P2;PMS_P1;PMS_P2;Temp;Humidity;BMP_temperature;BMP_pressure;BME280_temperature;BME280_humidity;BME280_pressure;Samples;Min_cycle;Max_cycle;Signal;HPM_P1;HPM_P2
2022/11/01 00:02:16;;;;;;;;;;;16.80;74.10;;;;;;5061163;28;20429;-80
2022/11/01 00:04:42;;;;;;;;;;;16.80;74.10;;;;;;5086217;28;20390;-79
2022/11/01 00:07:08;;;;;;;;;;;16.80;74.10;;;;;;5082023;28;19920;-79
2022/11/01 00:09:33;;;;;;;;;;;16.80;74.10;;;;;;5096780;28;19912;-81
2022/11/01 00:11:59;;;;;;;;;;;16.70;74.00;;;;;;5080223;28;19973;-84
2022/11/01 00:14:25;;;;;;;;;;;16.80;74.10;;;;;;5097093;28;20327;-80
2022/11/01 00:16:50;;;;;;;;;;;16.80;74.10;;;;;;5077754;28;20319;-81
2022/11/01 00:19:16;;;;;;;;;;;16.80;74.10;;;;;;5083739;28;19912;-82
2022/11/01 00:21:42;;;;;;;;;;;16.80;74.10;;;;;;5103821;28;20279;-80
2022/11/01 00:24:07;;;;;;;;;;;16.80;74.10;;;;;;5091298;28;19912;-81
2022/11/01 00:26:33;;;;;;;;;;;16.80;74.10;;;;;;5089007;28;19959;-81
2022/11/01 00:28:59;;;;;;;;;;;16.80;74.10;;;;;;5095607;28;19960;-80
2022/11/01 00:31:24;;;;;;;;;;;16.80;74.10;;;;;;5087001;28;19920;-80
2022/11/01 00:33:50;;;;;;;;;;;16.80;74.10;;;;;;5098509;28;20006;-79
2022/11/01 00:36:16;;;;;;;;;;;16.80;74.10;;;;;;5097911;28;20324;-79
2022/11/01 00:38:41;;;;;;;;;;;16.80;74.10;;;;;;5057113;28;20395;-80
2022/11/01 00:41:07;;;;;;;;;;;16.80;74.10;;;;;;5101358;28;19965;-79
2022/11/01 00:43:33;;;;;;;;;;;16.80;74.10;;;;;;5087742;28;19948;-79
2022/11/01 00:45:59;;;;;;;;;;;16.80;74.10;;;;;;5091551;28;19922;-80
2022/11/01 00:48:25;;;;;;;;;;;16.80;74.10;;;;;;5106066;28;19912;-80
2022/11/01 00:50:51;;;;;;;;;;;16.80;74.20;;;;;;5097225;28;19923;-80
2022/11/01 00:53:16;;;;;;;;;;;16.80;74.20;;;;;;5095802;28;20280;-80
2022/11/01 00:55:42;;;;;;;;;;;16.80;74.20;;;;;;5091433;28;19923;-81
2022/11/01 01:36:54;;;;;;;;;;;16.80;74.40;;;;;;4965794;23;19985;-81
2022/11/01 01:39:20;;;;;;;;;;;16.90;74.50;;;;;;4952318;29;19915;-80
2022/11/01 01:41:55;;;;;;;;;;;16.90;74.50;;;;;;4947750;28;20257;-81
2022/11/01 01:44:39;;;;;;;;;;;16.90;74.40;;;;;;4954113;29;19918;-80
2022/11/01 01:47:05;;;;;;;;;;;16.90;74.40;;;;;;4952557;28;19914;-81
2022/11/01 01:49:31;;;;;;;;;;;16.90;74.40;;;;;;4947778;29;20459;-81
2022/11/01 01:51:57;;;;;;;;;;;16.90;74.40;;;;;;4934889;29;20017;-80
2022/11/01 01:54:23;;;;;;;;;;;16.90;74.40;;;;;;4950796;29;19957;-79
2022/11/01 01:56:49;;;;;;;;;;;16.90;74.40;;;;;;4951981;28;20032;-80
2022/11/01 01:59:14;;;;;;;;;;;16.90;74.30;;;;;;4934776;29;19919;-80
2022/11/01 02:01:40;;;;;;;;;;;17.00;74.40;;;;;;4950489;28;20327;-80
2022/11/01 02:04:14;;;;;;;;;;;17.00;74.40;;;;;;4954177;28;19910;-81
2022/11/01 02:06:40;;;;;;;;;;;17.00;74.40;;;;;;4948471;28;20013;-82
2022/11/01 02:09:05;;;;;;;;;;;17.00;74.30;;;;;;4947696;29;20006;-80
2022/11/01 02:11:31;;;;;;;;;;;17.00;74.30;;;;;;4951396;29;19978;-81
2022/11/01 02:13:57;;;;;;;;;;;17.00;74.30;;;;;;4948584;29;20025;-81
2022/11/01 02:16:35;;;;;;;;;;;17.00;74.30;;;;;;4951433;28;19918;-80
2022/11/01 02:19:15;;;;;;;;;;;17.00;74.30;;;;;;4952685;28;19930;-80
2022/11/01 02:21:47;;;;;;;;;;;17.00;74.30;;;;;;4950779;29;19914;-81
2022/11/01 02:24:31;;;;;;;;;;;17.00;74.30;;;;;;4950402;28;20375;-80
2022/11/01 02:27:15;;;;;;;;;;;17.00;74.30;;;;;;4962154;28;19919;-80
2022/11/01 02:30:00;;;;;;;;;;;17.00;74.30;;;;;;4964985;28;19918;-80
2022/11/01 02:32:44;;;;;;;;;;;17.00;74.30;;;;;;4951539;28;20386;-80
2022/11/01 02:35:21;;;;;;;;;;;17.00;74.30;;;;;;4950870;29;19922;-79
2022/11/01 02:37:53;;;;;;;;;;;17.00;74.30;;;;;;4950119;28;20356;-81
2022/11/01 02:40:34;;;;;;;;;;;17.10;74.40;;;;;;4949503;28;20291;-81
2022/11/01 02:43:03;;;;;;;;;;;17.00;74.30;;;;;;4951169;28;19968;-80
2022/11/01 02:45:40;;;;;;;;;;;17.10;74.40;;;;;;4946609;29;19914;-80
2022/11/01 02:48:06;;;;;;;;;;;17.10;74.40;;;;;;4952346;28;20053;-80
2022/11/01 02:50:37;;;;;;;;;;;17.10;74.30;;;;;;4951025;28;19997;-80
2022/11/01 02:53:03;;;;;;;;;;;17.10;74.30;;;;;;4950164;28;19923;-80
2022/11/01 02:55:29;;;;;;;;;;;17.10;74.30;;;;;;4930982;29;19922;-80
2022/11/01 02:58:05;;;;;;;;;;;17.10;74.30;;;;;;4949467;28;19944;-80
2022/11/01 03:00:33;;;;;;;;;;;17.10;74.30;;;;;;4955639;28;20021;-81
2022/11/01 03:03:17;;;;;;;;;;;17.10;74.30;;;;;;4950834;28;19911;-80
2022/11/01 03:05:43;;;;;;;;;;;17.10;74.30;;;;;;4933816;29;19914;-80
2022/11/01 03:08:11;;;;;;;;;;;17.20;74.40;;;;;;4950997;29;20045;-80
2022/11/01 03:10:40;;;;;;;;;;;17.10;74.30;;;;;;4948202;29;19921;-80
2022/11/01 03:13:31;;;;;;;;;;;17.10;74.30;;;;;;4951337;29;20005;-80
2022/11/01 03:16:18;;;;;;;;;;;17.20;74.40;;;;;;4948380;29;20434;-80
2022/11/01 03:18:52;;;;;;;;;;;17.10;74.30;;;;;;4952540;28;20360;-80
2022/11/01 03:21:21;;;;;;;;;;;17.20;74.30;;;;;;4953791;28;19953;-80
2022/11/01 03:24:03;;;;;;;;;;;17.20;74.30;;;;;;4936868;29;19926;-81
2022/11/01 03:26:30;;;;;;;;;;;17.20;74.30;;;;;;4952855;28;19915;-80
2022/11/01 03:28:58;;;;;;;;;;;17.20;74.40;;;;;;4943206;28;19921;-81
2022/11/01 03:31:26;;;;;;;;;;;17.20;74.30;;;;;;4951604;28;20302;-80
2022/11/01 03:33:55;;;;;;;;;;;17.20;74.30;;;;;;4946679;28;19919;-80
2022/11/01 03:36:23;;;;;;;;;;;17.20;74.30;;;;;;4946382;29;19923;-80
2022/11/01 03:38:51;;;;;;;;;;;17.20;74.30;;;;;;4934457;28;20371;-80
2022/11/01 03:41:18;;;;;;;;;;;17.20;74.30;;;;;;4951078;29;19921;-80
2022/11/01 03:43:44;;;;;;;;;;;17.20;74.40;;;;;;4949766;29;19915;-79
2022/11/01 03:46:09;;;;;;;;;;;17.20;74.40;;;;;;4919281;29;19945;-81
2022/11/01 03:48:39;;;;;;;;;;;17.30;74.40;;;;;;4947550;28;19918;-80
2022/11/01 03:51:05;;;;;;;;;;;17.30;74.40;;;;;;4949065;28;19981;-80
2022/11/01 03:53:31;;;;;;;;;;;17.30;74.40;;;;;;4935130;28;19954;-81
2022/11/01 03:55:56;;;;;;;;;;;17.30;74.40;;;;;;4936191;29;19923;-81
2022/11/01 03:58:22;;;;;;;;;;;17.30;74.40;;;;;;4948486;28;19922;-81
2022/11/01 04:00:47;;;;;;;;;;;17.30;74.40;;;;;;4948315;28;19965;-81
2022/11/01 04:03:13;;;;;;;;;;;17.30;74.40;;;;;;4949910;29;20359;-80
2022/11/01 04:05:39;;;;;;;;;;;17.30;74.40;;;;;;4950644;29;20021;-80
2022/11/01 04:08:06;;;;;;;;;;;17.30;74.40;;;;;;4949551;28;19922;-80
2022/11/01 04:10:31;;;;;;;;;;;17.30;74.40;;;;;;4934336;29;19922;-81
2022/11/01 04:12:58;;;;;;;;;;;17.30;74.40;;;;;;4951040;28;20279;-81
2022/11/01 04:21:06;;;;;;;;;;;17.30;74.40;;;;;;4951364;29;19949;-80
2022/11/01 04:23:32;;;;;;;;;;;17.30;74.40;;;;;;4948305;29;19911;-80
2022/11/01 04:25:58;;;;;;;;;;;17.40;74.40;;;;;;4934847;29;19960;-80
2022/11/01 04:28:23;;;;;;;;;;;17.40;74.40;;;;;;4947720;28;20379;-81
2022/11/01 04:30:49;;;;;;;;;;;17.40;74.40;;;;;;4920615;29;20283;-80
2022/11/01 04:33:14;;;;;;;;;;;17.40;74.40;;;;;;4945730;28;19911;-81
2022/11/01 04:35:40;;;;;;;;;;;17.40;74.40;;;;;;4949811;29;19941;-80
2022/11/01 04:38:07;;;;;;;;;;;17.40;74.40;;;;;;4938767;29;19922;-80
2022/11/01 04:40:33;;;;;;;;;;;17.40;74.40;;;;;;4947670;28;19914;-80
2022/11/01 04:42:59;;;;;;;;;;;17.40;74.40;;;;;;4948797;29;19915;-80
2022/11/01 04:45:24;;;;;;;;;;;17.40;74.40;;;;;;4950428;29;19922;-81
2022/11/01 04:47:59;;;;;;;;;;;17.40;74.40;;;;;;4950955;28;20343;-80
2022/11/01 04:50:25;;;;;;;;;;;17.40;74.40;;;;;;4950271;29;19938;-80
2022/11/01 04:52:50;;;;;;;;;;;17.40;74.40;;;;;;4949971;28;20359;-80
2022/11/01 04:55:16;;;;;;;;;;;17.40;74.40;;;;;;4946724;29;20429;-80
2022/11/01 04:57:42;;;;;;;;;;;17.40;74.40;;;;;;4944291;28;19915;-80
2022/11/01 05:00:10;;;;;;;;;;;17.40;74.40;;;;;;4930138;29;19922;-81
2022/11/01 05:02:35;;;;;;;;;;;17.40;74.30;;;;;;4947872;29;19962;-81
2022/11/01 05:05:01;;;;;;;;;;;17.50;74.40;;;;;;4953847;29;19934;-82
2022/11/01 05:07:27;;;;;;;;;;;17.50;74.40;;;;;;4922368;29;20010;-80
2022/11/01 05:09:52;;;;;;;;;;;17.50;74.30;;;;;;4951333;28;19946;-82
2022/11/01 05:12:18;;;;;;;;;;;17.50;74.30;;;;;;4936977;28;19964;-80
2022/11/01 05:14:43;;;;;;;;;;;17.50;74.30;;;;;;4950224;29;19911;-80
2022/11/01 05:17:09;;;;;;;;;;;17.50;74.30;;;;;;4947823;28;19947;-80
2022/11/01 05:19:35;;;;;;;;;;;17.50;74.30;;;;;;4931801;29;19925;-81
2022/11/01 05:22:00;;;;;;;;;;;17.50;74.30;;;;;;4945117;29;19915;-80
2022/11/01 05:24:26;;;;;;;;;;;17.50;74.30;;;;;;4932525;29;19922;-79
2022/11/01 05:26:52;;;;;;;;;;;17.50;74.30;;;;;;4936669;29;20403;-81
2022/11/01 05:29:17;;;;;;;;;;;17.50;74.20;;;;;;4948916;28;19933;-80
2022/11/01 05:31:43;;;;;;;;;;;17.50;74.20;;;;;;4952262;28;20359;-81
2022/11/01 05:34:08;;;;;;;;;;;17.40;74.10;;;;;;4950410;28;19919;-82
2022/11/01 05:36:34;;;;;;;;;;;17.50;74.80;;;;;;4951851;28;19958;-82
2022/11/01 05:39:00;;;;;;;;;;;17.50;74.20;;;;;;4933517;29;20330;-81
2022/11/01 05:41:25;;;;;;;;;;;17.40;74.10;;;;;;4956509;28;20222;-81
2022/11/01 05:43:51;;;;;;;;;;;17.50;74.10;;;;;;4948328;28;19921;-80
2022/11/01 05:46:17;;;;;;;;;;;17.50;74.10;;;;;;4932310;29;20273;-82
2022/11/01 05:48:42;;;;;;;;;;;17.40;74.10;;;;;;4936314;29;19923;-81
2022/11/01 05:51:09;;;;;;;;;;;17.40;74.10;;;;;;4949635;28;19966;-81
2022/11/01 05:53:35;;;;;;;;;;;17.40;74.00;;;;;;4953600;28;19925;-80
2022/11/01 05:56:00;;;;;;;;;;;17.40;74.00;;;;;;4933999;29;19918;-81
2022/11/01 05:58:26;;;;;;;;;;;17.40;74.00;;;;;;4967361;28;20529;-80
2022/11/01 06:00:59;;;;;;;;;;;17.40;74.00;;;;;;4937762;28;20367;-81
2022/11/01 06:03:24;;;;;;;;;;;17.40;74.10;;;;;;4947564;29;20364;-80
2022/11/01 06:05:50;;;;;;;;;;;17.40;74.00;;;;;;4949929;28;19972;-82
2022/11/01 06:08:16;;;;;;;;;;;17.30;73.90;;;;;;4931938;29;19918;-80
2022/11/01 06:10:41;;;;;;;;;;;17.40;74.00;;;;;;4935554;29;19921;-80
2022/11/01 06:13:07;;;;;;;;;;;17.40;74.00;;;;;;4933705;29;19926;-81
2022/11/01 06:15:33;;;;;;;;;;;17.40;74.00;;;;;;4929994;29;20422;-82
2022/11/01 06:17:59;;;;;;;;;;;17.40;74.00;;;;;;4934113;29;20394;-81
2022/11/01 06:20:28;;;;;;;;;;;17.40;74.00;;;;;;4951369;29;20013;-81
2022/11/01 06:22:57;;;;;;;;;;;17.30;73.90;;;;;;4939964;29;20147;-81
2022/11/01 06:25:23;;;;;;;;;;;17.40;73.90;;;;;;4951296;28;19954;-80
2022/11/01 06:27:49;;;;;;;;;;;17.40;74.00;;;;;;4947707;29;19918;-80
2022/11/01 06:30:15;;;;;;;;;;;17.30;73.90;;;;;;4953257;29;20419;-80
2022/11/01 06:32:41;;;;;;;;;;;17.30;73.90;;;;;;4950026;28;19931;-80
2022/11/01 06:35:07;;;;;;;;;;;17.30;73.90;;;;;;4948942;29;20395;-81
2022/11/01 06:37:32;;;;;;;;;;;17.30;73.90;;;;;;4950755;28;19929;-81
2022/11/01 06:39:58;;;;;;;;;;;17.30;73.90;;;;;;4936570;29;19923;-80
2022/11/01 06:42:24;;;;;;;;;;;17.30;73.90;;;;;;4936179;29;20375;-81
2022/11/01 06:44:49;;;;;;;;;;;17.30;73.90;;;;;;4952645;28;20399;-83
2022/11/01 06:47:15;;;;;;;;;;;17.30;73.80;;;;;;4950658;29;19914;-80
2022/11/01 06:49:40;;;;;;;;;;;17.30;73.90;;;;;;4930713;29;20279;-80
2022/11/01 06:52:07;;;;;;;;;;;17.30;73.90;;;;;;4933330;29;20005;-81
2022/11/01 06:54:32;;;;;;;;;;;17.30;73.90;;;;;;4951292;29;19918;-80
2022/11/01 06:56:58;;;;;;;;;;;17.20;73.80;;;;;;4926093;29;19923;-79
2022/11/01 06:59:23;;;;;;;;;;;17.20;73.80;;;;;;4934137;29;19958;-81
2022/11/01 07:01:50;;;;;;;;;;;17.20;73.80;;;;;;4936018;29;20011;-80
2022/11/01 07:04:16;;;;;;;;;;;17.20;73.80;;;;;;4946652;29;20359;-81
2022/11/01 07:06:42;;;;;;;;;;;17.20;73.80;;;;;;4952240;28;19919;-80
2022/11/01 07:09:07;;;;;;;;;;;17.20;73.80;;;;;;4950331;28;19911;-82
2022/11/01 07:11:33;;;;;;;;;;;17.20;73.80;;;;;;4931139;29;19926;-81
2022/11/01 07:13:59;;;;;;;;;;;17.20;73.80;;;;;;4935899;29;19921;-82
2022/11/01 07:16:25;;;;;;;;;;;17.20;73.80;;;;;;4919832;29;19919;-82
2022/11/01 07:18:50;;;;;;;;;;;17.20;73.80;;;;;;4951421;29;19981;-79
2022/11/01 07:21:16;;;;;;;;;;;17.10;73.70;;;;;;4935804;29;19925;-82
2022/11/01 07:23:41;;;;;;;;;;;17.10;73.70;;;;;;4949296;28;19946;-80
2022/11/01 07:26:07;;;;;;;;;;;17.10;73.70;;;;;;4950094;28;19941;-80
2022/11/01 07:28:33;;;;;;;;;;;17.10;73.70;;;;;;4936297;29;20005;-81
2022/11/01 07:30:59;;;;;;;;;;;17.10;73.70;;;;;;4919457;29;19981;-81
2022/11/01 07:33:25;;;;;;;;;;;17.10;73.70;;;;;;4936698;29;19914;-81
2022/11/01 07:35:51;;;;;;;;;;;17.10;73.70;;;;;;4946114;28;20403;-80
2022/11/01 07:38:17;;;;;;;;;;;17.10;73.70;;;;;;4949887;28;19914;-81
2022/11/01 07:40:48;;;;;;;;;;;17.10;73.70;;;;;;4949269;28;20426;-82
2022/11/01 07:43:14;;;;;;;;;;;17.10;73.70;;;;;;4934239;29;19971;-82
2022/11/01 07:45:39;;;;;;;;;;;17.10;73.70;;;;;;4933610;29;19950;-81
2022/11/01 07:48:08;;;;;;;;;;;17.10;74.30;;;;;;4950884;29;19918;-81
2022/11/01 07:50:34;;;;;;;;;;;17.10;73.60;;;;;;4951145;29;19910;-81
2022/11/01 07:53:01;;;;;;;;;;;17.00;73.60;;;;;;4934849;28;19933;-81
2022/11/01 07:55:27;;;;;;;;;;;17.00;73.60;;;;;;4948247;28;20002;-81
2022/11/01 07:57:53;;;;;;;;;;;17.00;73.60;;;;;;4951731;28;20392;-79
2022/11/01 08:00:18;;;;;;;;;;;17.00;73.60;;;;;;4931096;29;20536;-79
2022/11/01 08:02:44;;;;;;;;;;;17.10;73.60;;;;;;4946710;29;19922;-80
2022/11/01 08:05:11;;;;;;;;;;;17.00;73.50;;;;;;4936415;29;19969;-80
2022/11/01 08:07:40;;;;;;;;;;;17.10;73.60;;;;;;4929983;29;20592;-81
2022/11/01 08:10:07;;;;;;;;;;;17.00;73.50;;;;;;4952513;29;19910;-81
2022/11/01 08:12:33;;;;;;;;;;;17.00;73.50;;;;;;4950267;29;19931;-80
2022/11/01 08:14:59;;;;;;;;;;;17.00;73.50;;;;;;4951409;28;19922;-81
2022/11/01 08:17:25;;;;;;;;;;;17.00;73.50;;;;;;4934236;29;19918;-82
2022/11/01 08:19:51;;;;;;;;;;;17.00;73.50;;;;;;4936344;29;20339;-80
2022/11/01 08:22:16;;;;;;;;;;;17.00;73.50;;;;;;4952931;29;20386;-81
2022/11/01 08:24:42;;;;;;;;;;;17.00;73.50;;;;;;4933363;29;19918;-81
2022/11/01 08:27:08;;;;;;;;;;;16.90;73.40;;;;;;4946503;28;20386;-80
2022/11/01 08:29:33;;;;;;;;;;;17.00;73.40;;;;;;4942857;28;19919;-81
2022/11/01 08:31:59;;;;;;;;;;;17.00;73.50;;;;;;4935687;29;19965;-80
2022/11/01 08:34:24;;;;;;;;;;;16.90;73.40;;;;;;4934177;29;19925;-81
2022/11/01 08:36:50;;;;;;;;;;;17.00;73.50;;;;;;4932900;29;20029;-81
2022/11/01 08:39:16;;;;;;;;;;;16.90;73.40;;;;;;4936134;29;19919;-80
2022/11/01 08:41:41;;;;;;;;;;;16.90;74.10;;;;;;4952528;28;19918;-82
2022/11/01 08:44:07;;;;;;;;;;;16.90;73.40;;;;;;4952398;29;20373;-81
2022/11/01 08:46:32;;;;;;;;;;;16.90;73.40;;;;;;4923702;29;19941;-82
2022/11/01 08:48:59;;;;;;;;;;;17.00;73.40;;;;;;4937536;29;19926;-81
2022/11/01 08:51:26;;;;;;;;;;;17.00;73.40;;;;;;4950575;29;19957;-82
2022/11/01 08:53:55;;;;;;;;;;;16.90;73.40;;;;;;4954910;29;19977;-81
2022/11/01 08:56:23;;;;;;;;;;;16.90;73.40;;;;;;4952824;28;19957;-80
2022/11/01 08:58:49;;;;;;;;;;;16.90;73.40;;;;;;4954660;29;19918;-80
2022/11/01 09:01:15;;;;;;;;;;;17.00;73.40;;;;;;4949185;29;19914;-82
2022/11/01 09:03:40;;;;;;;;;;;17.00;73.40;;;;;;4951849;28;20352;-80
2022/11/01 09:06:06;;;;;;;;;;;17.00;73.40;;;;;;4938460;29;19914;-81
2022/11/01 09:08:31;;;;;;;;;;;17.00;73.40;;;;;;4947491;28;19918;-81
2022/11/01 09:10:57;;;;;;;;;;;17.00;73.30;;;;;;4936057;29;19945;-80
2022/11/01 09:13:23;;;;;;;;;;;17.00;73.30;;;;;;4936489;29;20021;-81
2022/11/01 09:15:49;;;;;;;;;;;17.00;73.30;;;;;;4950394;29;20347;-81
2022/11/01 09:18:14;;;;;;;;;;;17.00;73.30;;;;;;4954133;28;19946;-81
2022/11/01 09:20:40;;;;;;;;;;;17.00;73.30;;;;;;4954765;28;19911;-81
2022/11/01 09:23:06;;;;;;;;;;;17.10;73.30;;;;;;4955753;29;20014;-81
2022/11/01 09:25:32;;;;;;;;;;;17.00;73.30;;;;;;4954255;28;19951;-81
2022/11/01 09:27:58;;;;;;;;;;;17.10;73.30;;;;;;4935165;29;19929;-81
2022/11/01 09:30:24;;;;;;;;;;;17.10;73.30;;;;;;4952238;29;20644;-80
2022/11/01 09:32:49;;;;;;;;;;;17.10;73.30;;;;;;4952889;28;20002;-81
2022/11/01 09:35:16;;;;;;;;;;;17.10;73.20;;;;;;4951376;28;20030;-81
2022/11/01 09:37:43;;;;;;;;;;;17.10;73.20;;;;;;4938877;29;19918;-80
2022/11/01 09:40:09;;;;;;;;;;;17.10;73.20;;;;;;4937051;29;19922;-81
2022/11/01 09:42:41;;;;;;;;;;;17.20;73.20;;;;;;4947074;29;20017;-82
2022/11/01 09:45:11;;;;;;;;;;;17.20;73.20;;;;;;4952755;29;19922;-82
2022/11/01 09:47:36;;;;;;;;;;;17.20;73.10;;;;;;4950835;29;19915;-81
2022/11/01 09:50:13;;;;;;;;;;;17.20;73.10;;;;;;4947604;28;20489;-81
2022/11/01 09:52:39;;;;;;;;;;;17.20;73.10;;;;;;4949189;29;19923;-81
2022/11/01 09:55:11;;;;;;;;;;;17.30;73.10;;;;;;4956115;28;19917;-82
2022/11/01 09:57:40;;;;;;;;;;;17.30;73.10;;;;;;4954327;28;20398;-81
2022/11/01 10:00:13;;;;;;;;;;;17.30;73.10;;;;;;4938297;29;19906;-81
2022/11/01 10:02:49;;;;;;;;;;;17.30;73.10;;;;;;4953574;28;20080;-81
2022/11/01 10:05:21;;;;;;;;;;;17.30;73.10;;;;;;4954295;29;19957;-82
2022/11/01 10:07:56;;;;;;;;;;;17.40;73.10;;;;;;4949081;28;20281;-80
2022/11/01 10:10:21;;;;;;;;;;;17.40;73.20;;;;;;4953251;29;19993;-81
2022/11/01 10:12:54;;;;;;;;;;;17.40;73.20;;;;;;4953977;29;20048;-81
2022/11/01 10:15:25;;;;;;;;;;;17.40;73.20;;;;;;4939426;29;19915;-81
2022/11/01 10:17:52;;;;;;;;;;;17.40;73.20;;;;;;4950935;28;19914;-81
2022/11/01 10:20:20;;;;;;;;;;;17.40;73.20;;;;;;4951646;29;19917;-81
2022/11/01 10:22:49;;;;;;;;;;;17.40;73.30;;;;;;4954045;28;19914;-81
2022/11/01 10:25:18;;;;;;;;;;;17.50;73.30;;;;;;4953696;28;19958;-81
2022/11/01 10:27:48;;;;;;;;;;;17.50;73.30;;;;;;4947096;28;20342;-82
2022/11/01 10:30:15;;;;;;;;;;;17.50;73.30;;;;;;4953159;28;20403;-81
2022/11/01 10:32:44;;;;;;;;;;;17.50;73.30;;;;;;4952366;28;19954;-82
2022/11/01 10:35:16;;;;;;;;;;;17.50;73.30;;;;;;4953877;28;19969;-81
2022/11/01 10:37:45;;;;;;;;;;;17.50;73.30;;;;;;4949145;28;19920;-81
2022/11/01 10:40:13;;;;;;;;;;;17.50;73.30;;;;;;4949974;29;19918;-82
2022/11/01 10:42:39;;;;;;;;;;;17.50;73.30;;;;;;4953106;29;19915;-82
2022/11/01 10:45:14;;;;;;;;;;;17.50;73.30;;;;;;4951737;29;19934;-82
2022/11/01 10:47:42;;;;;;;;;;;17.60;73.40;;;;;;4939460;29;19961;-82
2022/11/01 10:50:10;;;;;;;;;;;17.60;73.40;;;;;;4949069;29;19914;-81
2022/11/01 10:52:58;;;;;;;;;;;17.60;73.40;;;;;;4950105;29;20386;-83
2022/11/01 10:55:46;;;;;;;;;;;17.60;73.40;;;;;;4953982;28;19994;-80
2022/11/01 10:58:27;;;;;;;;;;;17.60;73.40;;;;;;4952652;29;19929;-80
2022/11/01 11:00:52;;;;;;;;;;;17.60;73.40;;;;;;4950312;28;20232;-79
2022/11/01 11:03:21;;;;;;;;;;;17.60;73.40;;;;;;4950805;28;19993;-81
2022/11/01 11:05:47;;;;;;;;;;;17.60;73.40;;;;;;4949866;29;19948;-80
2022/11/01 11:08:14;;;;;;;;;;;17.70;73.60;;;;;;4950005;29;20017;-81
2022/11/01 11:10:41;;;;;;;;;;;17.60;73.40;;;;;;4952875;29;19918;-81
2022/11/01 11:13:07;;;;;;;;;;;17.70;73.50;;;;;;4934310;29;19989;-83
2022/11/01 11:15:40;;;;;;;;;;;17.70;73.50;;;;;;4951890;28;20314;-83
2022/11/01 11:18:12;;;;;;;;;;;17.70;73.50;;;;;;4954707;28;20001;-82
2022/11/01 11:20:38;;;;;;;;;;;17.70;73.60;;;;;;4951347;28;19914;-82
2022/11/01 11:23:07;;;;;;;;;;;17.70;73.50;;;;;;4950444;29;20264;-81
2022/11/01 11:25:35;;;;;;;;;;;17.70;73.50;;;;;;4954884;28;19926;-81
2022/11/01 11:28:01;;;;;;;;;;;17.70;73.50;;;;;;4949583;28;19910;-80
2022/11/01 11:30:28;;;;;;;;;;;17.70;73.50;;;;;;4959484;28;20068;-80
2022/11/01 11:32:54;;;;;;;;;;;17.70;73.50;;;;;;4950574;29;20016;-81
2022/11/01 11:35:22;;;;;;;;;;;17.70;73.40;;;;;;4952668;28;19966;-80
2022/11/01 11:37:57;;;;;;;;;;;17.80;73.50;;;;;;4952666;28;19915;-81
2022/11/01 11:40:24;;;;;;;;;;;17.80;73.50;;;;;;4950811;29;19914;-81
2022/11/01 11:42:51;;;;;;;;;;;17.80;73.50;;;;;;4934150;28;20340;-82
2022/11/01 11:45:27;;;;;;;;;;;17.80;73.40;;;;;;4951718;29;19954;-81
2022/11/01 11:47:53;;;;;;;;;;;17.80;73.40;;;;;;4947156;29;19930;-81
2022/11/01 11:50:19;;;;;;;;;;;17.80;73.40;;;;;;4952670;28;19915;-80
2022/11/01 11:52:46;;;;;;;;;;;17.80;73.40;;;;;;4952570;29;19923;-80
2022/11/01 11:55:47;;;;;;;;;;;17.80;73.40;;;;;;4959454;28;19911;-80
2022/11/01 11:58:21;;;;;;;;;;;17.80;73.40;;;;;;4954002;28;19918;-81
2022/11/01 12:00:48;;;;;;;;;;;17.80;73.40;;;;;;4935925;29;20049;-81
2022/11/01 12:03:16;;;;;;;;;;;17.80;73.40;;;;;;4947522;29;19914;-81
2022/11/01 12:05:54;;;;;;;;;;;17.90;73.40;;;;;;4934115;29;19919;-80
2022/11/01 12:08:24;;;;;;;;;;;17.90;73.40;;;;;;4949821;28;19918;-84
2022/11/01 12:10:55;;;;;;;;;;;17.90;73.40;;;;;;4968347;28;19989;-84
2022/11/01 12:13:21;;;;;;;;;;;17.90;73.40;;;;;;4954394;28;19923;-85
2022/11/01 12:15:46;;;;;;;;;;;17.90;73.40;;;;;;4951953;29;20287;-83
2022/11/01 12:18:16;;;;;;;;;;;17.90;73.40;;;;;;4941044;28;20327;-84
2022/11/01 12:20:42;;;;;;;;;;;17.90;73.40;;;;;;4939022;28;19914;-83
2022/11/01 12:23:20;;;;;;;;;;;18.00;73.40;;;;;;4939107;29;19921;-84
2022/11/01 12:25:48;;;;;;;;;;;18.00;73.40;;;;;;4953976;29;19921;-84
2022/11/01 12:28:32;;;;;;;;;;;18.00;73.40;;;;;;4953742;28;20303;-83
2022/11/01 12:30:59;;;;;;;;;;;18.00;73.40;;;;;;4939060;29;19930;-83
2022/11/01 12:33:28;;;;;;;;;;;18.00;73.40;;;;;;4952209;28;19976;-82
2022/11/01 12:35:53;;;;;;;;;;;18.00;73.40;;;;;;4947458;28;20012;-84
2022/11/01 12:38:19;;;;;;;;;;;18.00;73.40;;;;;;4953294;29;20066;-84
2022/11/01 12:40:47;;;;;;;;;;;18.00;73.40;;;;;;4951213;29;20073;-84
2022/11/01 12:43:33;;;;;;;;;;;18.00;73.40;;;;;;4954730;28;19914;-84
2022/11/01 12:46:01;;;;;;;;;;;18.10;73.40;;;;;;4953170;29;19915;-83
2022/11/01 12:48:35;;;;;;;;;;;18.10;73.50;;;;;;4949613;29;19911;-84
2022/11/01 12:51:11;;;;;;;;;;;18.10;73.50;;;;;;4971446;28;19945;-83
2022/11/01 12:54:12;;;;;;;;;;;18.10;73.50;;;;;;4957062;29;19919;-84
2022/11/01 12:56:38;;;;;;;;;;;18.10;73.50;;;;;;4913003;29;19919;-84
2022/11/01 12:59:04;;;;;;;;;;;18.10;73.50;;;;;;4914334;29;19914;-83
2022/11/01 13:01:30;;;;;;;;;;;18.20;73.50;;;;;;4937627;29;19929;-84
2022/11/01 13:04:14;;;;;;;;;;;18.20;73.50;;;;;;4941892;29;20319;-83
2022/11/01 13:06:40;;;;;;;;;;;18.10;73.50;;;;;;4953384;29;19910;-87
2022/11/01 13:09:09;;;;;;;;;;;18.20;73.50;;;;;;4952431;28;19917;-81
2022/11/01 13:11:34;;;;;;;;;;;18.20;73.50;;;;;;4948385;28;19922;-80
2022/11/01 13:14:18;;;;;;;;;;;18.20;73.50;;;;;;4949200;29;20459;-81
2022/11/01 13:16:48;;;;;;;;;;;18.20;73.50;;;;;;4946166;28;19915;-80
2022/11/01 13:19:13;;;;;;;;;;;18.20;73.50;;;;;;4938173;28;20017;-82
2022/11/01 13:21:48;;;;;;;;;;;18.30;73.50;;;;;;4949657;28;20001;-79
2022/11/01 13:24:32;;;;;;;;;;;18.30;73.50;;;;;;4951013;28;20062;-80
2022/11/01 13:27:03;;;;;;;;;;;18.30;73.50;;;;;;4954955;28;19922;-80
2022/11/01 13:29:35;;;;;;;;;;;18.30;73.50;;;;;;4931490;29;19937;-80
2022/11/01 13:32:21;;;;;;;;;;;18.30;73.50;;;;;;4953179;28;19962;-80
2022/11/01 13:34:46;;;;;;;;;;;18.30;73.40;;;;;;4933315;29;19942;-81
2022/11/01 13:37:19;;;;;;;;;;;18.30;73.40;;;;;;4951236;28;19922;-83
2022/11/01 13:39:45;;;;;;;;;;;18.40;73.50;;;;;;4951036;28;20014;-83
2022/11/01 13:42:12;;;;;;;;;;;18.40;73.50;;;;;;4953973;29;20358;-83
2022/11/01 13:44:41;;;;;;;;;;;18.40;73.40;;;;;;4948066;29;19918;-83
2022/11/01 13:47:16;;;;;;;;;;;18.50;73.40;;;;;;4937938;29;20446;-85
2022/11/01 13:49:57;;;;;;;;;;;18.50;73.30;;;;;;4954718;29;19914;-83
2022/11/01 13:52:25;;;;;;;;;;;18.60;73.30;;;;;;4967001;28;19927;-84
2022/11/01 13:54:51;;;;;;;;;;;18.60;73.30;;;;;;4955192;28;19945;-84
2022/11/01 13:57:18;;;;;;;;;;;18.60;73.30;;;;;;4954365;28;20613;-83
2022/11/01 13:59:44;;;;;;;;;;;18.60;73.30;;;;;;4933992;29;19919;-87
2022/11/01 14:02:15;;;;;;;;;;;18.60;73.30;;;;;;4952016;28;19970;-82
2022/11/01 14:04:52;;;;;;;;;;;18.70;73.40;;;;;;4953928;28;19914;-84
2022/11/01 14:07:18;;;;;;;;;;;18.60;73.30;;;;;;4947956;28;20272;-84
2022/11/01 14:09:45;;;;;;;;;;;18.70;73.30;;;;;;4935911;29;19921;-83
2022/11/01 14:12:28;;;;;;;;;;;18.70;73.30;;;;;;4951895;28;20025;-83
2022/11/01 14:15:07;;;;;;;;;;;18.70;73.30;;;;;;4955544;28;20010;-83
2022/11/01 14:17:32;;;;;;;;;;;18.70;73.30;;;;;;4965526;28;20057;-83
2022/11/01 14:19:58;;;;;;;;;;;18.70;73.30;;;;;;4951625;29;20312;-84
2022/11/01 14:22:34;;;;;;;;;;;18.80;73.30;;;;;;4954715;28;19915;-84
2022/11/01 14:25:01;;;;;;;;;;;18.80;73.30;;;;;;4935371;29;19926;-83
2022/11/01 14:27:27;;;;;;;;;;;18.80;73.30;;;;;;4952288;28;19910;-85
2022/11/01 14:29:53;;;;;;;;;;;18.80;73.30;;;;;;4952564;28;19918;-84
2022/11/01 14:32:21;;;;;;;;;;;18.80;73.30;;;;;;4952210;28;19973;-84
2022/11/01 14:34:54;;;;;;;;;;;18.80;73.30;;;;;;4950758;28;19937;-84
2022/11/01 14:37:22;;;;;;;;;;;18.80;73.30;;;;;;4952490;28;19923;-85
2022/11/01 14:39:53;;;;;;;;;;;18.80;73.30;;;;;;4953655;28;19915;-85
2022/11/01 14:42:25;;;;;;;;;;;18.80;73.30;;;;;;4938037;29;19919;-84
2022/11/01 14:44:52;;;;;;;;;;;18.90;73.30;;;;;;4948287;29;19978;-84
2022/11/01 14:47:18;;;;;;;;;;;18.90;73.30;;;;;;4948358;29;19958;-85
2022/11/01 14:49:44;;;;;;;;;;;18.90;73.30;;;;;;4951071;29;19918;-85
2022/11/01 14:52:14;;;;;;;;;;;18.90;73.30;;;;;;4952512;28;19925;-85
2022/11/01 14:54:46;;;;;;;;;;;18.90;73.30;;;;;;4952656;28;20001;-84
2022/11/01 14:57:24;;;;;;;;;;;18.90;73.30;;;;;;4967613;28;19921;-84
2022/11/01 14:59:50;;;;;;;;;;;18.90;73.30;;;;;;4947687;29;20320;-85
2022/11/01 15:02:17;;;;;;;;;;;18.90;73.30;;;;;;4921585;29;19970;-85
2022/11/01 15:04:44;;;;;;;;;;;18.90;73.30;;;;;;4953380;28;19958;-84
2022/11/01 15:07:20;;;;;;;;;;;18.90;73.30;;;;;;4951548;29;20430;-84
2022/11/01 15:09:55;;;;;;;;;;;18.90;73.20;;;;;;4942171;28;19914;-83